sensor_id;sensor_type;location;lat;lon;timestamp;P1;durP1;ratioP1;P2;durP2;ratioP2
20456;SDS011;10387;51.102;6.848;2023-06-14T00:01:26;9.07;;;8.27;;
20456;SDS011;10387;51.102;6.848;2023-06-14T00:03:52;8.33;;;7.40;;
20456;SDS011;10387;51.102;6.848;2023-06-14T00:06:19;8.17;;;7.47;;
20456;SDS011;10387;51.102;6.848;2023-06-14T00:08:45;8.20;;;7.40;;
20456;SDS011;10387;51.102;6.848;2023-06-14T00:11:11;9.83;;;7.60;;
20456;SDS011;10387;51.102;6.848;2023-06-14T00:13:37;10.73;;;7.87;;
20456;SDS011;10387;51.102;6.848;2023-06-14T00:16:03;8.00;;;7.27;;
20456;SDS011;10387;51.102;6.848;2023-06-14T00:18:29;8.73;;;7.83;;
20456;SDS011;10387;51.102;6.848;2023-06-14T00:20:55;8.50;;;7.57;;
20456;SDS011;10387;51.102;6.848;2023-06-14T00:23:22;8.50;;;7.57;;
20456;SDS011;10387;51.102;6.848;2023-06-14T00:25:48;8.33;;;7.53;;
20456;SDS011;10387;51.102;6.848;2023-06-14T00:28:14;8.57;;;7.87;;
20456;SDS011;10387;51.102;6.848;2023-06-14T00:30:40;8.73;;;7.93;;
20456;SDS011;10387;51.102;6.848;2023-06-14T00:33:06;9.17;;;7.60;;
20456;SDS011;10387;51.102;6.848;2023-06-14T00:35:32;8.33;;;7.53;;
20456;SDS011;10387;51.102;6.848;2023-06-14T00:37:58;9.20;;;8.30;;
20456;SDS011;10387;51.102;6.848;2023-06-14T00:40:24;9.00;;;8.10;;
20456;SDS011;10387;51.102;6.848;2023-06-14T00:42:50;9.90;;;8.53;;
20456;SDS011;10387;51.102;6.848;2023-06-14T00:45:16;9.67;;;8.77;;
20456;SDS011;10387;51.102;6.848;2023-06-14T00:47:43;9.23;;;8.43;;
20456;SDS011;10387;51.102;6.848;2023-06-14T00:50:09;8.90;;;8.10;;
20456;SDS011;10387;51.102;6.848;2023-06-14T00:52:36;9.13;;;7.93;;
20456;SDS011;10387;51.102;6.848;2023-06-14T00:55:02;8.87;;;8.07;;
20456;SDS011;10387;51.102;6.848;2023-06-14T00:57:28;9.13;;;8.23;;
20456;SDS011;10387;51.102;6.848;2023-06-14T00:59:55;8.60;;;7.77;;
20456;SDS011;10387;51.102;6.848;2023-06-14T01:02:21;8.87;;;7.97;;
20456;SDS011;10387;51.102;6.848;2023-06-14T01:04:47;9.27;;;8.40;;
20456;SDS011;10387;51.102;6.848;2023-06-14T01:12:18;9.20;;;8.30;;
20456;SDS011;10387;51.102;6.848;2023-06-14T01:14:47;9.17;;;8.27;;
20456;SDS011;10387;51.102;6.848;2023-06-14T01:17:14;9.53;;;8.63;;
20456;SDS011;10387;51.102;6.848;2023-06-14T01:19:43;9.90;;;9.00;;
20456;SDS011;10387;51.102;6.848;2023-06-14T01:22:12;9.33;;;8.50;;
20456;SDS011;10387;51.102;6.848;2023-06-14T01:24:39;10.07;;;9.07;;
20456;SDS011;10387;51.102;6.848;2023-06-14T01:27:11;9.00;;;8.20;;
20456;SDS011;10387;51.102;6.848;2023-06-14T01:29:37;9.40;;;8.40;;
20456;SDS011;10387;51.102;6.848;2023-06-14T01:32:04;10.33;;;9.33;;
20456;SDS011;10387;51.102;6.848;2023-06-14T01:34:30;9.67;;;8.77;;
20456;SDS011;10387;51.102;6.848;2023-06-14T01:36:56;9.77;;;8.83;;
20456;SDS011;10387;51.102;6.848;2023-06-14T01:39:23;10.80;;;9.27;;
20456;SDS011;10387;51.102;6.848;2023-06-14T01:41:49;10.80;;;9.83;;
20456;SDS011;10387;51.102;6.848;2023-06-14T01:44:17;11.23;;;10.23;;
20456;SDS011;10387;51.102;6.848;2023-06-14T01:46:44;9.80;;;8.90;;
20456;SDS011;10387;51.102;6.848;2023-06-14T01:49:11;10.80;;;9.90;;
20456;SDS011;10387;51.102;6.848;2023-06-14T01:51:37;10.53;;;9.43;;
20456;SDS011;10387;51.102;6.848;2023-06-14T01:54:04;9.70;;;8.80;;
20456;SDS011;10387;51.102;6.848;2023-06-14T01:56:30;9.80;;;8.80;;
20456;SDS011;10387;51.102;6.848;2023-06-14T01:58:58;10.47;;;9.47;;
20456;SDS011;10387;51.102;6.848;2023-06-14T02:01:24;10.17;;;9.17;;
20456;SDS011;10387;51.102;6.848;2023-06-14T02:03:51;9.90;;;9.00;;
20456;SDS011;10387;51.102;6.848;2023-06-14T02:06:18;9.33;;;8.50;;
20456;SDS011;10387;51.102;6.848;2023-06-14T02:08:44;9.57;;;8.77;;
20456;SDS011;10387;51.102;6.848;2023-06-14T02:11:10;12.77;;;9.43;;
20456;SDS011;10387;51.102;6.848;2023-06-14T02:13:36;9.97;;;9.07;;
20456;SDS011;10387;51.102;6.848;2023-06-14T02:16:03;10.30;;;9.40;;
20456;SDS011;10387;51.102;6.848;2023-06-14T02:18:29;11.57;;;9.40;;
20456;SDS011;10387;51.102;6.848;2023-06-14T02:20:58;10.60;;;9.60;;
20456;SDS011;10387;51.102;6.848;2023-06-14T02:23:24;10.13;;;9.23;;
20456;SDS011;10387;51.102;6.848;2023-06-14T02:25:50;11.07;;;9.97;;
20456;SDS011;10387;51.102;6.848;2023-06-14T02:28:16;10.13;;;9.13;;
20456;SDS011;10387;51.102;6.848;2023-06-14T02:30:42;10.37;;;9.40;;
20456;SDS011;10387;51.102;6.848;2023-06-14T02:33:08;9.70;;;8.70;;
20456;SDS011;10387;51.102;6.848;2023-06-14T02:35:39;11.53;;;10.33;;
20456;SDS011;10387;51.102;6.848;2023-06-14T02:38:05;9.70;;;8.80;;
20456;SDS011;10387;51.102;6.848;2023-06-14T02:40:31;9.70;;;8.80;;
20456;SDS011;10387;51.102;6.848;2023-06-14T02:42:57;10.27;;;9.27;;
20456;SDS011;10387;51.102;6.848;2023-06-14T02:45:23;10.07;;;9.17;;
20456;SDS011;10387;51.102;6.848;2023-06-14T02:47:50;10.67;;;9.67;;
20456;SDS011;10387;51.102;6.848;2023-06-14T02:50:16;10.53;;;9.43;;
20456;SDS011;10387;51.102;6.848;2023-06-14T02:52:43;10.40;;;9.40;;
20456;SDS011;10387;51.102;6.848;2023-06-14T02:55:10;10.90;;;9.43;;
20456;SDS011;10387;51.102;6.848;2023-06-14T02:57:37;10.03;;;9.13;;
20456;SDS011;10387;51.102;6.848;2023-06-14T03:00:03;10.83;;;9.83;;
20456;SDS011;10387;51.102;6.848;2023-06-14T03:02:33;10.13;;;9.13;;
20456;SDS011;10387;51.102;6.848;2023-06-14T03:05:00;9.93;;;8.90;;
20456;SDS011;10387;51.102;6.848;2023-06-14T03:07:29;10.90;;;9.70;;
20456;SDS011;10387;51.102;6.848;2023-06-14T03:09:56;10.83;;;9.80;;
20456;SDS011;10387;51.102;6.848;2023-06-14T03:12:22;10.27;;;9.37;;
20456;SDS011;10387;51.102;6.848;2023-06-14T03:14:49;10.63;;;9.63;;
20456;SDS011;10387;51.102;6.848;2023-06-14T03:17:19;10.30;;;9.30;;
20456;SDS011;10387;51.102;6.848;2023-06-14T03:19:45;11.87;;;10.67;;
20456;SDS011;10387;51.102;6.848;2023-06-14T03:22:12;11.47;;;10.27;;
20456;SDS011;10387;51.102;6.848;2023-06-14T03:24:39;11.37;;;10.10;;
20456;SDS011;10387;51.102;6.848;2023-06-14T03:27:11;10.40;;;9.37;;
20456;SDS011;10387;51.102;6.848;2023-06-14T03:29:41;11.73;;;9.90;;
20456;SDS011;10387;51.102;6.848;2023-06-14T03:32:08;9.80;;;8.80;;
20456;SDS011;10387;51.102;6.848;2023-06-14T03:34:37;12.00;;;10.80;;
20456;SDS011;10387;51.102;6.848;2023-06-14T03:37:04;11.90;;;10.70;;
20456;SDS011;10387;51.102;6.848;2023-06-14T03:39:31;11.67;;;10.50;;
20456;SDS011;10387;51.102;6.848;2023-06-14T03:41:57;10.83;;;9.83;;
20456;SDS011;10387;51.102;6.848;2023-06-14T03:44:26;11.00;;;9.90;;
20456;SDS011;10387;51.102;6.848;2023-06-14T03:46:53;11.40;;;10.20;;
20456;SDS011;10387;51.102;6.848;2023-06-14T03:49:19;10.90;;;9.83;;
20456;SDS011;10387;51.102;6.848;2023-06-14T03:51:45;11.23;;;9.83;;
20456;SDS011;10387;51.102;6.848;2023-06-14T03:54:18;11.10;;;10.13;;
20456;SDS011;10387;51.102;6.848;2023-06-14T03:56:46;11.80;;;9.87;;
20456;SDS011;10387;51.102;6.848;2023-06-14T03:59:13;11.63;;;9.80;;
20456;SDS011;10387;51.102;6.848;2023-06-14T04:01:39;12.10;;;10.90;;
20456;SDS011;10387;51.102;6.848;2023-06-14T04:04:12;11.73;;;10.57;;
20456;SDS011;10387;51.102;6.848;2023-06-14T04:06:41;11.80;;;10.60;;
20456;SDS011;10387;51.102;6.848;2023-06-14T04:09:09;11.73;;;10.63;;
20456;SDS011;10387;51.102;6.848;2023-06-14T04:11:35;12.37;;;10.53;;
20456;SDS011;10387;51.102;6.848;2023-06-14T04:14:02;12.00;;;9.80;;
20456;SDS011;10387;51.102;6.848;2023-06-14T04:16:28;11.37;;;10.27;;
20456;SDS011;10387;51.102;6.848;2023-06-14T04:18:55;10.50;;;9.40;;
20456;SDS011;10387;51.102;6.848;2023-06-14T04:21:23;10.27;;;9.27;;
20456;SDS011;10387;51.102;6.848;2023-06-14T04:23:51;13.83;;;11.03;;
20456;SDS011;10387;51.102;6.848;2023-06-14T04:26:21;12.00;;;10.47;;
20456;SDS011;10387;51.102;6.848;2023-06-14T04:28:48;11.90;;;10.70;;
20456;SDS011;10387;51.102;6.848;2023-06-14T04:31:17;11.63;;;10.27;;
20456;SDS011;10387;51.102;6.848;2023-06-14T04:33:43;11.93;;;10.67;;
20456;SDS011;10387;51.102;6.848;2023-06-14T04:36:16;13.23;;;10.80;;
20456;SDS011;10387;51.102;6.848;2023-06-14T04:38:45;12.93;;;11.70;;
20456;SDS011;10387;51.102;6.848;2023-06-14T04:41:12;13.20;;;11.50;;
20456;SDS011;10387;51.102;6.848;2023-06-14T04:43:40;15.60;;;11.70;;
20456;SDS011;10387;51.102;6.848;2023-06-14T04:46:09;11.73;;;10.63;;
20456;SDS011;10387;51.102;6.848;2023-06-14T04:48:39;13.70;;;11.00;;
20456;SDS011;10387;51.102;6.848;2023-06-14T04:51:06;11.20;;;10.03;;
20456;SDS011;10387;51.102;6.848;2023-06-14T04:53:33;10.10;;;9.10;;
20456;SDS011;10387;51.102;6.848;2023-06-14T04:55:59;10.13;;;9.10;;
20456;SDS011;10387;51.102;6.848;2023-06-14T04:58:26;9.53;;;8.63;;
20456;SDS011;10387;51.102;6.848;2023-06-14T05:00:54;9.50;;;8.60;;
20456;SDS011;10387;51.102;6.848;2023-06-14T05:03:21;9.73;;;8.77;;
20456;SDS011;10387;51.102;6.848;2023-06-14T05:05:49;9.27;;;8.33;;
20456;SDS011;10387;51.102;6.848;2023-06-14T05:08:16;9.17;;;8.00;;
20456;SDS011;10387;51.102;6.848;2023-06-14T05:10:43;10.67;;;8.20;;
20456;SDS011;10387;51.102;6.848;2023-06-14T05:13:09;8.93;;;8.03;;
20456;SDS011;10387;51.102;6.848;2023-06-14T05:15:35;8.57;;;7.63;;
20456;SDS011;10387;51.102;6.848;2023-06-14T05:18:02;9.73;;;8.13;;
20456;SDS011;10387;51.102;6.848;2023-06-14T05:20:28;9.67;;;8.60;;
20456;SDS011;10387;51.102;6.848;2023-06-14T05:22:54;10.87;;;8.63;;
20456;SDS011;10387;51.102;6.848;2023-06-14T05:25:21;10.63;;;8.10;;
20456;SDS011;10387;51.102;6.848;2023-06-14T05:27:48;10.03;;;7.70;;
20456;SDS011;10387;51.102;6.848;2023-06-14T05:30:15;9.07;;;7.67;;
20456;SDS011;10387;51.102;6.848;2023-06-14T05:32:41;10.13;;;8.10;;
20456;SDS011;10387;51.102;6.848;2023-06-14T05:35:07;10.90;;;8.10;;
20456;SDS011;10387;51.102;6.848;2023-06-14T05:37:34;8.17;;;7.43;;
20456;SDS011;10387;51.102;6.848;2023-06-14T05:40:00;8.03;;;7.27;;
20456;SDS011;10387;51.102;6.848;2023-06-14T05:42:26;10.70;;;7.33;;
20456;SDS011;10387;51.102;6.848;2023-06-14T05:44:52;8.20;;;7.30;;
20456;SDS011;10387;51.102;6.848;2023-06-14T05:47:18;8.90;;;6.53;;
20456;SDS011;10387;51.102;6.848;2023-06-14T05:49:44;8.53;;;6.93;;
20456;SDS011;10387;51.102;6.848;2023-06-14T05:52:10;10.07;;;6.60;;
20456;SDS011;10387;51.102;6.848;2023-06-14T05:54:38;7.47;;;6.77;;
20456;SDS011;10387;51.102;6.848;2023-06-14T05:57:04;7.47;;;6.73;;
20456;SDS011;10387;51.102;6.848;2023-06-14T05:59:31;7.37;;;6.60;;
20456;SDS011;10387;51.102;6.848;2023-06-14T06:01:57;7.50;;;6.80;;
20456;SDS011;10387;51.102;6.848;2023-06-14T06:04:23;7.43;;;6.47;;
20456;SDS011;10387;51.102;6.848;2023-06-14T06:06:49;9.80;;;5.77;;
20456;SDS011;10387;51.102;6.848;2023-06-14T06:09:15;7.80;;;6.00;;
20456;SDS011;10387;51.102;6.848;2023-06-14T06:11:41;6.67;;;5.37;;
20456;SDS011;10387;51.102;6.848;2023-06-14T06:14:07;7.10;;;6.13;;
20456;SDS011;10387;51.102;6.848;2023-06-14T06:16:34;6.63;;;5.90;;
20456;SDS011;10387;51.102;6.848;2023-06-14T06:19:00;6.87;;;5.13;;
20456;SDS011;10387;51.102;6.848;2023-06-14T06:21:26;5.37;;;4.73;;
20456;SDS011;10387;51.102;6.848;2023-06-14T06:23:55;5.47;;;4.97;;
20456;SDS011;10387;51.102;6.848;2023-06-14T06:26:22;7.07;;;5.00;;
20456;SDS011;10387;51.102;6.848;2023-06-14T06:28:48;5.40;;;4.40;;
20456;SDS011;10387;51.102;6.848;2023-06-14T06:31:14;5.90;;;4.53;;
20456;SDS011;10387;51.102;6.848;2023-06-14T06:33:40;6.33;;;4.60;;
20456;SDS011;10387;51.102;6.848;2023-06-14T06:36:06;7.73;;;5.80;;
20456;SDS011;10387;51.102;6.848;2023-06-14T06:38:32;6.37;;;4.83;;
20456;SDS011;10387;51.102;6.848;2023-06-14T06:40:58;5.63;;;4.97;;
20456;SDS011;10387;51.102;6.848;2023-06-14T06:43:24;7.20;;;4.70;;
20456;SDS011;10387;51.102;6.848;2023-06-14T06:45:51;5.73;;;4.27;;
20456;SDS011;10387;51.102;6.848;2023-06-14T06:48:17;5.33;;;4.50;;
20456;SDS011;10387;51.102;6.848;2023-06-14T06:50:43;11.97;;;6.63;;
20456;SDS011;10387;51.102;6.848;2023-06-14T06:53:09;8.57;;;5.67;;
20456;SDS011;10387;51.102;6.848;2023-06-14T06:55:35;5.97;;;4.20;;
20456;SDS011;10387;51.102;6.848;2023-06-14T06:58:02;6.70;;;5.50;;
20456;SDS011;10387;51.102;6.848;2023-06-14T07:00:30;4.93;;;4.40;;
20456;SDS011;10387;51.102;6.848;2023-06-14T07:02:56;6.67;;;3.80;;
20456;SDS011;10387;51.102;6.848;2023-06-14T07:05:23;5.43;;;4.10;;
20456;SDS011;10387;51.102;6.848;2023-06-14T07:07:49;4.13;;;3.73;;
20456;SDS011;10387;51.102;6.848;2023-06-14T07:10:15;5.00;;;3.60;;
20456;SDS011;10387;51.102;6.848;2023-06-14T07:12:41;4.13;;;3.30;;
20456;SDS011;10387;51.102;6.848;2023-06-14T07:15:07;3.57;;;3.13;;
20456;SDS011;10387;51.102;6.848;2023-06-14T07:17:34;4.40;;;2.87;;
20456;SDS011;10387;51.102;6.848;2023-06-14T07:20:00;3.20;;;2.80;;
20456;SDS011;10387;51.102;6.848;2023-06-14T07:22:37;4.23;;;2.53;;
20456;SDS011;10387;51.102;6.848;2023-06-14T07:25:06;2.60;;;2.37;;
20456;SDS011;10387;51.102;6.848;2023-06-14T07:27:32;2.30;;;2.10;;
20456;SDS011;10387;51.102;6.848;2023-06-14T07:29:59;2.13;;;1.87;;
20456;SDS011;10387;51.102;6.848;2023-06-14T07:32:26;2.97;;;2.40;;
20456;SDS011;10387;51.102;6.848;2023-06-14T07:34:52;5.67;;;2.67;;
20456;SDS011;10387;51.102;6.848;2023-06-14T07:37:20;3.87;;;2.70;;
20456;SDS011;10387;51.102;6.848;2023-06-14T07:39:47;3.10;;;2.20;;
20456;SDS011;10387;51.102;6.848;2023-06-14T07:42:13;6.70;;;3.30;;
20456;SDS011;10387;51.102;6.848;2023-06-14T07:44:40;3.13;;;2.03;;
20456;SDS011;10387;51.102;6.848;2023-06-14T07:47:07;10.17;;;3.20;;
20456;SDS011;10387;51.102;6.848;2023-06-14T07:49:33;3.60;;;2.30;;
20456;SDS011;10387;51.102;6.848;2023-06-14T07:51:59;4.37;;;2.63;;
20456;SDS011;10387;51.102;6.848;2023-06-14T07:54:25;2.40;;;2.20;;
20456;SDS011;10387;51.102;6.848;2023-06-14T07:56:53;4.30;;;2.73;;
20456;SDS011;10387;51.102;6.848;2023-06-14T07:59:19;4.30;;;2.80;;
20456;SDS011;10387;51.102;6.848;2023-06-14T08:01:45;4.10;;;2.20;;
20456;SDS011;10387;51.102;6.848;2023-06-14T08:04:16;2.00;;;1.83;;
20456;SDS011;10387;51.102;6.848;2023-06-14T08:06:42;2.77;;;1.90;;
20456;SDS011;10387;51.102;6.848;2023-06-14T08:09:10;2.97;;;1.90;;
20456;SDS011;10387;51.102;6.848;2023-06-14T08:11:37;1.70;;;1.60;;
20456;SDS011;10387;51.102;6.848;2023-06-14T08:14:03;3.70;;;2.10;;
20456;SDS011;10387;51.102;6.848;2023-06-14T08:16:29;1.80;;;1.70;;
20456;SDS011;10387;51.102;6.848;2023-06-14T08:18:55;2.93;;;1.80;;
20456;SDS011;10387;51.102;6.848;2023-06-14T08:21:22;2.07;;;1.80;;
20456;SDS011;10387;51.102;6.848;2023-06-14T08:23:48;3.83;;;2.03;;
20456;SDS011;10387;51.102;6.848;2023-06-14T08:26:18;2.70;;;2.07;;
20456;SDS011;10387;51.102;6.848;2023-06-14T08:28:44;5.60;;;2.40;;
20456;SDS011;10387;51.102;6.848;2023-06-14T08:31:10;2.20;;;2.00;;
20456;SDS011;10387;51.102;6.848;2023-06-14T08:33:36;2.70;;;2.13;;
20456;SDS011;10387;51.102;6.848;2023-06-14T08:36:02;4.37;;;2.03;;
20456;SDS011;10387;51.102;6.848;2023-06-14T08:38:29;2.67;;;1.90;;
20456;SDS011;10387;51.102;6.848;2023-06-14T08:40:57;2.43;;;2.13;;
20456;SDS011;10387;51.102;6.848;2023-06-14T08:43:23;2.22;;;2.00;;
20456;SDS011;10387;51.102;6.848;2023-06-14T08:45:50;3.10;;;2.37;;
20456;SDS011;10387;51.102;6.848;2023-06-14T08:48:19;3.47;;;2.47;;
20456;SDS011;10387;51.102;6.848;2023-06-14T08:50:46;2.63;;;2.10;;
20456;SDS011;10387;51.102;6.848;2023-06-14T08:53:13;4.97;;;2.13;;
20456;SDS011;10387;51.102;6.848;2023-06-14T08:55:44;2.72;;;2.25;;
20456;SDS011;10387;51.102;6.848;2023-06-14T08:58:12;3.70;;;2.70;;
20456;SDS011;10387;51.102;6.848;2023-06-14T09:00:42;3.92;;;2.55;;
20456;SDS011;10387;51.102;6.848;2023-06-14T09:03:09;3.40;;;2.45;;
20456;SDS011;10387;51.102;6.848;2023-06-14T09:05:38;3.33;;;2.40;;
20456;SDS011;10387;51.102;6.848;2023-06-14T09:08:05;2.80;;;2.37;;
20456;SDS011;10387;51.102;6.848;2023-06-14T09:10:31;3.47;;;2.50;;
20456;SDS011;10387;51.102;6.848;2023-06-14T09:13:01;3.33;;;2.50;;
20456;SDS011;10387;51.102;6.848;2023-06-14T09:15:27;3.33;;;2.40;;
20456;SDS011;10387;51.102;6.848;2023-06-14T09:17:54;2.60;;;2.40;;
20456;SDS011;10387;51.102;6.848;2023-06-14T09:20:20;3.97;;;2.40;;
20456;SDS011;10387;51.102;6.848;2023-06-14T09:22:47;2.20;;;2.00;;
20456;SDS011;10387;51.102;6.848;2023-06-14T09:25:13;3.73;;;2.47;;
20456;SDS011;10387;51.102;6.848;2023-06-14T09:27:43;2.40;;;2.17;;
20456;SDS011;10387;51.102;6.848;2023-06-14T09:30:09;2.58;;;2.20;;
20456;SDS011;10387;51.102;6.848;2023-06-14T09:32:37;2.87;;;1.93;;
20456;SDS011;10387;51.102;6.848;2023-06-14T09:35:04;2.40;;;2.10;;
20456;SDS011;10387;51.102;6.848;2023-06-14T09:37:32;3.63;;;2.20;;
20456;SDS011;10387;51.102;6.848;2023-06-14T09:39:58;2.50;;;2.00;;
20456;SDS011;10387;51.102;6.848;2023-06-14T09:42:24;2.27;;;1.93;;
20456;SDS011;10387;51.102;6.848;2023-06-14T09:44:53;3.90;;;2.63;;
20456;SDS011;10387;51.102;6.848;2023-06-14T09:47:19;3.67;;;2.70;;
20456;SDS011;10387;51.102;6.848;2023-06-14T09:49:46;2.30;;;2.07;;
20456;SDS011;10387;51.102;6.848;2023-06-14T09:52:16;4.60;;;2.70;;
20456;SDS011;10387;51.102;6.848;2023-06-14T09:54:43;40.87;;;11.43;;
20456;SDS011;10387;51.102;6.848;2023-06-14T09:57:21;5.33;;;2.57;;
20456;SDS011;10387;51.102;6.848;2023-06-14T09:59:47;3.73;;;2.00;;
20456;SDS011;10387;51.102;6.848;2023-06-14T10:02:18;2.47;;;1.93;;
20456;SDS011;10387;51.102;6.848;2023-06-14T10:04:50;2.60;;;2.20;;
20456;SDS011;10387;51.102;6.848;2023-06-14T10:07:19;2.37;;;1.50;;
20456;SDS011;10387;51.102;6.848;2023-06-14T10:09:49;2.37;;;2.17;;
20456;SDS011;10387;51.102;6.848;2023-06-14T10:12:18;3.23;;;2.27;;
20456;SDS011;10387;51.102;6.848;2023-06-14T10:14:49;2.50;;;2.00;;
20456;SDS011;10387;51.102;6.848;2023-06-14T10:20:14;3.40;;;2.50;;
20456;SDS011;10387;51.102;6.848;2023-06-14T10:22:46;3.23;;;2.30;;
20456;SDS011;10387;51.102;6.848;2023-06-14T10:25:25;2.67;;;2.30;;
20456;SDS011;10387;51.102;6.848;2023-06-14T10:27:52;3.30;;;2.60;;
20456;SDS011;10387;51.102;6.848;2023-06-14T10:30:18;3.10;;;2.73;;
20456;SDS011;10387;51.102;6.848;2023-06-14T10:33:04;2.83;;;2.53;;
20456;SDS011;10387;51.102;6.848;2023-06-14T10:35:31;5.13;;;3.00;;
20456;SDS011;10387;51.102;6.848;2023-06-14T10:38:10;3.33;;;2.90;;
20456;SDS011;10387;51.102;6.848;2023-06-14T10:40:37;3.20;;;2.90;;
20456;SDS011;10387;51.102;6.848;2023-06-14T10:43:37;3.30;;;3.00;;
20456;SDS011;10387;51.102;6.848;2023-06-14T10:46:18;3.07;;;2.87;;
20456;SDS011;10387;51.102;6.848;2023-06-14T10:48:48;3.78;;;2.75;;
20456;SDS011;10387;51.102;6.848;2023-06-14T10:51:18;3.23;;;2.93;;
20456;SDS011;10387;51.102;6.848;2023-06-14T10:53:48;3.03;;;2.83;;
20456;SDS011;10387;51.102;6.848;2023-06-14T10:56:29;3.30;;;3.00;;
20456;SDS011;10387;51.102;6.848;2023-06-14T10:58:56;3.70;;;3.20;;
20456;SDS011;10387;51.102;6.848;2023-06-14T11:01:31;3.33;;;3.03;;
20456;SDS011;10387;51.102;6.848;2023-06-14T11:04:01;3.73;;;3.00;;
20456;SDS011;10387;51.102;6.848;2023-06-14T11:06:36;3.85;;;2.63;;
20456;SDS011;10387;51.102;6.848;2023-06-14T11:11:33;3.58;;;2.53;;
20456;SDS011;10387;51.102;6.848;2023-06-14T11:14:01;2.85;;;2.65;;
20456;SDS011;10387;51.102;6.848;2023-06-14T11:16:27;4.30;;;2.97;;
20456;SDS011;10387;51.102;6.848;2023-06-14T11:18:55;4.85;;;2.67;;
20456;SDS011;10387;51.102;6.848;2023-06-14T11:21:21;3.08;;;2.72;;
20456;SDS011;10387;51.102;6.848;2023-06-14T11:23:50;3.25;;;2.95;;
20456;SDS011;10387;51.102;6.848;2023-06-14T11:26:24;2.65;;;2.45;;
20456;SDS011;10387;51.102;6.848;2023-06-14T11:28:54;3.03;;;2.83;;
20456;SDS011;10387;51.102;6.848;2023-06-14T11:31:20;3.00;;;2.70;;
20456;SDS011;10387;51.102;6.848;2023-06-14T11:33:49;3.28;;;2.95;;
20456;SDS011;10387;51.102;6.848;2023-06-14T11:36:15;3.57;;;2.87;;
20456;SDS011;10387;51.102;6.848;2023-06-14T11:38:42;3.53;;;2.42;;
20456;SDS011;10387;51.102;6.848;2023-06-14T11:41:08;3.60;;;2.53;;
20456;SDS011;10387;51.102;6.848;2023-06-14T11:43:36;3.38;;;2.67;;
20456;SDS011;10387;51.102;6.848;2023-06-14T11:46:02;3.28;;;2.65;;
20456;SDS011;10387;51.102;6.848;2023-06-14T11:48:47;3.40;;;2.30;;
20456;SDS011;10387;51.102;6.848;2023-06-14T11:51:13;2.53;;;2.33;;
20456;SDS011;10387;51.102;6.848;2023-06-14T11:53:42;4.82;;;2.30;;
20456;SDS011;10387;51.102;6.848;2023-06-14T11:56:08;3.20;;;2.50;;
20456;SDS011;10387;51.102;6.848;2023-06-14T11:58:34;2.65;;;2.45;;
20456;SDS011;10387;51.102;6.848;2023-06-14T12:01:02;2.67;;;2.45;;
20456;SDS011;10387;51.102;6.848;2023-06-14T12:03:28;3.45;;;2.33;;
20456;SDS011;10387;51.102;6.848;2023-06-14T12:06:08;2.75;;;2.50;;
20456;SDS011;10387;51.102;6.848;2023-06-14T12:08:35;4.25;;;2.25;;
20456;SDS011;10387;51.102;6.848;2023-06-14T12:11:11;2.67;;;2.25;;
20456;SDS011;10387;51.102;6.848;2023-06-14T12:13:39;2.25;;;2.05;;
20456;SDS011;10387;51.102;6.848;2023-06-14T12:16:06;2.58;;;1.98;;
20456;SDS011;10387;51.102;6.848;2023-06-14T12:18:36;2.10;;;1.90;;
20456;SDS011;10387;51.102;6.848;2023-06-14T12:21:03;3.20;;;2.00;;
20456;SDS011;10387;51.102;6.848;2023-06-14T12:26:12;2.40;;;1.75;;
20456;SDS011;10387;51.102;6.848;2023-06-14T12:28:39;2.13;;;1.75;;
20456;SDS011;10387;51.102;6.848;2023-06-14T12:31:07;1.70;;;1.60;;
20456;SDS011;10387;51.102;6.848;2023-06-14T12:33:33;1.98;;;1.80;;
20456;SDS011;10387;51.102;6.848;2023-06-14T12:35:59;1.95;;;1.80;;
20456;SDS011;10387;51.102;6.848;2023-06-14T12:38:25;2.83;;;1.98;;
20456;SDS011;10387;51.102;6.848;2023-06-14T12:40:52;2.20;;;2.00;;
20456;SDS011;10387;51.102;6.848;2023-06-14T12:43:18;2.30;;;1.90;;
20456;SDS011;10387;51.102;6.848;2023-06-14T12:45:44;4.03;;;2.10;;
20456;SDS011;10387;51.102;6.848;2023-06-14T12:48:11;5.28;;;2.45;;
20456;SDS011;10387;51.102;6.848;2023-06-14T12:50:37;6.72;;;2.60;;
20456;SDS011;10387;51.102;6.848;2023-06-14T12:53:03;2.40;;;1.90;;
20456;SDS011;10387;51.102;6.848;2023-06-14T12:55:29;3.10;;;2.20;;
20456;SDS011;10387;51.102;6.848;2023-06-14T12:57:55;2.17;;;1.58;;
20456;SDS011;10387;51.102;6.848;2023-06-14T13:00:21;1.95;;;1.80;;
20456;SDS011;10387;51.102;6.848;2023-06-14T13:02:48;3.10;;;2.00;;
20456;SDS011;10387;51.102;6.848;2023-06-14T13:05:14;2.97;;;1.80;;
20456;SDS011;10387;51.102;6.848;2023-06-14T13:07:40;2.65;;;1.80;;
20456;SDS011;10387;51.102;6.848;2023-06-14T13:10:06;2.00;;;1.83;;
20456;SDS011;10387;51.102;6.848;2023-06-14T13:12:32;2.00;;;1.90;;
20456;SDS011;10387;51.102;6.848;2023-06-14T13:14:58;1.90;;;1.80;;
20456;SDS011;10387;51.102;6.848;2023-06-14T13:17:24;4.05;;;1.80;;
20456;SDS011;10387;51.102;6.848;2023-06-14T13:19:51;2.90;;;1.75;;
20456;SDS011;10387;51.102;6.848;2023-06-14T13:22:17;2.78;;;1.50;;
20456;SDS011;10387;51.102;6.848;2023-06-14T13:24:43;3.92;;;1.63;;
20456;SDS011;10387;51.102;6.848;2023-06-14T13:27:09;2.58;;;1.48;;
20456;SDS011;10387;51.102;6.848;2023-06-14T13:29:35;1.77;;;1.50;;
20456;SDS011;10387;51.102;6.848;2023-06-14T13:32:02;1.33;;;1.23;;
20456;SDS011;10387;51.102;6.848;2023-06-14T13:34:28;2.35;;;1.60;;
20456;SDS011;10387;51.102;6.848;2023-06-14T13:36:55;1.73;;;1.63;;
20456;SDS011;10387;51.102;6.848;2023-06-14T13:39:23;1.40;;;1.30;;
20456;SDS011;10387;51.102;6.848;2023-06-14T13:41:49;1.63;;;1.52;;
20456;SDS011;10387;51.102;6.848;2023-06-14T13:44:16;1.70;;;1.60;;
20456;SDS011;10387;51.102;6.848;2023-06-14T13:46:44;3.00;;;1.90;;
20456;SDS011;10387;51.102;6.848;2023-06-14T13:49:10;2.03;;;1.90;;
20456;SDS011;10387;51.102;6.848;2023-06-14T13:51:37;1.77;;;1.67;;
20456;SDS011;10387;51.102;6.848;2023-06-14T13:54:03;1.50;;;1.40;;
20456;SDS011;10387;51.102;6.848;2023-06-14T13:56:29;1.70;;;1.60;;
20456;SDS011;10387;51.102;6.848;2023-06-14T13:58:55;2.17;;;1.90;;
20456;SDS011;10387;51.102;6.848;2023-06-14T14:01:22;2.92;;;1.90;;
20456;SDS011;10387;51.102;6.848;2023-06-14T14:03:49;1.77;;;1.67;;
20456;SDS011;10387;51.102;6.848;2023-06-14T14:06:15;2.20;;;1.85;;
20456;SDS011;10387;51.102;6.848;2023-06-14T14:08:42;2.10;;;1.80;;
20456;SDS011;10387;51.102;6.848;2023-06-14T14:11:09;2.20;;;2.10;;
20456;SDS011;10387;51.102;6.848;2023-06-14T14:13:35;2.80;;;2.03;;
20456;SDS011;10387;51.102;6.848;2023-06-14T14:16:02;2.08;;;1.88;;
20456;SDS011;10387;51.102;6.848;2023-06-14T14:18:28;2.35;;;2.22;;
20456;SDS011;10387;51.102;6.848;2023-06-14T14:20:54;2.17;;;2.00;;
20456;SDS011;10387;51.102;6.848;2023-06-14T14:23:21;2.22;;;2.03;;
20456;SDS011;10387;51.102;6.848;2023-06-14T14:25:48;2.15;;;1.85;;
20456;SDS011;10387;51.102;6.848;2023-06-14T14:28:14;2.22;;;1.88;;
20456;SDS011;10387;51.102;6.848;2023-06-14T14:30:44;2.47;;;2.13;;
20456;SDS011;10387;51.102;6.848;2023-06-14T14:33:10;2.20;;;2.10;;
20456;SDS011;10387;51.102;6.848;2023-06-14T14:35:41;2.50;;;2.30;;
20456;SDS011;10387;51.102;6.848;2023-06-14T14:38:07;2.28;;;2.13;;
20456;SDS011;10387;51.102;6.848;2023-06-14T14:40:33;2.35;;;2.20;;
20456;SDS011;10387;51.102;6.848;2023-06-14T14:42:59;2.20;;;2.10;;
20456;SDS011;10387;51.102;6.848;2023-06-14T14:45:25;2.45;;;2.25;;
20456;SDS011;10387;51.102;6.848;2023-06-14T14:47:51;2.65;;;2.30;;
20456;SDS011;10387;51.102;6.848;2023-06-14T14:50:18;2.40;;;2.28;;
20456;SDS011;10387;51.102;6.848;2023-06-14T14:52:44;3.22;;;2.08;;
20456;SDS011;10387;51.102;6.848;2023-06-14T14:55:10;4.00;;;3.03;;
20456;SDS011;10387;51.102;6.848;2023-06-14T14:57:36;2.50;;;2.30;;